sensor_id;sensor_type;location;lat;lon;timestamp;temperature;humidity
62575;DHT22;53112;45.602;11.904;2022-12-07T00:03:38;4.60;74.80
62575;DHT22;53112;45.602;11.904;2022-12-07T00:06:05;4.20;76.70
62575;DHT22;53112;45.602;11.904;2022-12-07T00:08:33;4.10;77.00
62575;DHT22;53112;45.602;11.904;2022-12-07T00:11:10;3.90;78.00
62575;DHT22;53112;45.602;11.904;2022-12-07T00:13:37;3.90;78.50
62575;DHT22;53112;45.602;11.904;2022-12-07T00:18:30;4.10;77.20
62575;DHT22;53112;45.602;11.904;2022-12-07T00:21:05;4.10;77.10
62575;DHT22;53112;45.602;11.904;2022-12-07T00:23:31;4.30;76.30
62575;DHT22;53112;45.602;11.904;2022-12-07T00:26:04;4.30;75.80
62575;DHT22;53112;45.602;11.904;2022-12-07T00:28:30;4.40;75.30
62575;DHT22;53112;45.602;11.904;2022-12-07T00:31:23;4.30;76.20
62575;DHT22;53112;45.602;11.904;2022-12-07T00:33:50;4.40;75.50
62575;DHT22;53112;45.602;11.904;2022-12-07T00:36:18;4.40;75.90
62575;DHT22;53112;45.602;11.904;2022-12-07T00:38:45;4.40;75.80
62575;DHT22;53112;45.602;11.904;2022-12-07T00:41:21;4.40;75.70
62575;DHT22;53112;45.602;11.904;2022-12-07T00:43:49;4.50;75.50
62575;DHT22;53112;45.602;11.904;2022-12-07T00:46:15;4.30;76.40
62575;DHT22;53112;45.602;11.904;2022-12-07T00:48:41;4.10;77.50
62575;DHT22;53112;45.602;11.904;2022-12-07T00:51:09;4.20;78.10
62575;DHT22;53112;45.602;11.904;2022-12-07T00:53:36;4.30;76.80
62575;DHT22;53112;45.602;11.904;2022-12-07T00:56:12;4.30;76.50
62575;DHT22;53112;45.602;11.904;2022-12-07T00:58:39;3.80;78.80
62575;DHT22;53112;45.602;11.904;2022-12-07T01:01:06;3.70;79.50
62575;DHT22;53112;45.602;11.904;2022-12-07T01:03:32;3.70;79.10
62575;DHT22;53112;45.602;11.904;2022-12-07T01:05:58;3.50;79.70
62575;DHT22;53112;45.602;11.904;2022-12-07T01:08:26;3.50;79.50
62575;DHT22;53112;45.602;11.904;2022-12-07T01:11:07;3.50;79.10
62575;DHT22;53112;45.602;11.904;2022-12-07T01:13:34;3.70;78.00
62575;DHT22;53112;45.602;11.904;2022-12-07T01:16:03;3.80;77.10
62575;DHT22;53112;45.602;11.904;2022-12-07T01:18:31;3.60;77.60
62575;DHT22;53112;45.602;11.904;2022-12-07T01:21:06;3.50;77.60
62575;DHT22;53112;45.602;11.904;2022-12-07T01:23:33;3.50;77.60
62575;DHT22;53112;45.602;11.904;2022-12-07T01:26:02;3.50;77.00
62575;DHT22;53112;45.602;11.904;2022-12-07T01:28:29;3.40;77.20
62575;DHT22;53112;45.602;11.904;2022-12-07T01:30:59;3.40;77.90
62575;DHT22;53112;45.602;11.904;2022-12-07T01:33:27;3.50;78.00
62575;DHT22;53112;45.602;11.904;2022-12-07T01:35:54;3.60;77.60
62575;DHT22;53112;45.602;11.904;2022-12-07T01:38:20;3.50;77.80
62575;DHT22;53112;45.602;11.904;2022-12-07T01:40:55;3.50;77.20
62575;DHT22;53112;45.602;11.904;2022-12-07T01:43:23;3.40;77.60
62575;DHT22;53112;45.602;11.904;2022-12-07T01:45:49;3.40;77.30
62575;DHT22;53112;45.602;11.904;2022-12-07T01:48:18;3.30;78.10
62575;DHT22;53112;45.602;11.904;2022-12-07T01:50:48;3.30;78.60
62575;DHT22;53112;45.602;11.904;2022-12-07T01:53:16;3.40;78.60
62575;DHT22;53112;45.602;11.904;2022-12-07T01:55:45;3.40;78.00
62575;DHT22;53112;45.602;11.904;2022-12-07T01:58:14;3.40;78.30
62575;DHT22;53112;45.602;11.904;2022-12-07T02:00:41;3.40;77.00
62575;DHT22;53112;45.602;11.904;2022-12-07T02:03:31;3.50;77.30
62575;DHT22;53112;45.602;11.904;2022-12-07T02:05:59;3.30;77.60
62575;DHT22;53112;45.602;11.904;2022-12-07T02:08:26;3.40;77.60
62575;DHT22;53112;45.602;11.904;2022-12-07T02:10:52;3.40;77.80
62575;DHT22;53112;45.602;11.904;2022-12-07T02:13:27;3.40;78.00
62575;DHT22;53112;45.602;11.904;2022-12-07T02:27:07;3.90;75.60
62575;DHT22;53112;45.602;11.904;2022-12-07T02:32:13;3.60;76.50
62575;DHT22;53112;45.602;11.904;2022-12-07T02:37:36;3.40;77.90
62575;DHT22;53112;45.602;11.904;2022-12-07T02:43:01;3.70;77.40
62575;DHT22;53112;45.602;11.904;2022-12-07T02:45:31;3.80;76.30
62575;DHT22;53112;45.602;11.904;2022-12-07T02:47:59;3.80;76.10
62575;DHT22;53112;45.602;11.904;2022-12-07T02:50:26;4.00;75.70
62575;DHT22;53112;45.602;11.904;2022-12-07T02:52:53;3.80;75.70
62575;DHT22;53112;45.602;11.904;2022-12-07T02:55:23;3.50;77.10
62575;DHT22;53112;45.602;11.904;2022-12-07T03:00:32;3.40;77.50
62575;DHT22;53112;45.602;11.904;2022-12-07T03:03:11;3.20;78.30
62575;DHT22;53112;45.602;11.904;2022-12-07T03:11:42;3.30;78.30
62575;DHT22;53112;45.602;11.904;2022-12-07T03:14:17;3.40;78.80
62575;DHT22;53112;45.602;11.904;2022-12-07T03:17:24;3.30;78.50
62575;DHT22;53112;45.602;11.904;2022-12-07T03:19:43;3.40;78.50
62575;DHT22;53112;45.602;11.904;2022-12-07T03:22:12;3.40;77.80
62575;DHT22;53112;45.602;11.904;2022-12-07T03:24:47;3.20;78.30
62575;DHT22;53112;45.602;11.904;2022-12-07T03:27:21;3.30;78.60
62575;DHT22;53112;45.602;11.904;2022-12-07T03:32:37;3.40;77.50
62575;DHT22;53112;45.602;11.904;2022-12-07T03:35:12;3.30;78.40
62575;DHT22;53112;45.602;11.904;2022-12-07T03:37:56;3.50;77.60
62575;DHT22;53112;45.602;11.904;2022-12-07T03:41:14;3.60;77.00
62575;DHT22;53112;45.602;11.904;2022-12-07T03:43:19;3.50;76.80
62575;DHT22;53112;45.602;11.904;2022-12-07T03:48:35;3.30;79.10
62575;DHT22;53112;45.602;11.904;2022-12-07T03:51:17;3.40;78.60
62575;DHT22;53112;45.602;11.904;2022-12-07T03:53:59;3.60;78.40
62575;DHT22;53112;45.602;11.904;2022-12-07T03:56:29;3.60;77.90
62575;DHT22;53112;45.602;11.904;2022-12-07T03:58:55;3.60;77.90
62575;DHT22;53112;45.602;11.904;2022-12-07T04:01:23;3.60;77.60
62575;DHT22;53112;45.602;11.904;2022-12-07T04:03:49;3.70;77.00
62575;DHT22;53112;45.602;11.904;2022-12-07T04:06:15;3.60;77.30
62575;DHT22;53112;45.602;11.904;2022-12-07T04:08:41;3.50;77.70
62575;DHT22;53112;45.602;11.904;2022-12-07T04:11:07;3.60;77.80
62575;DHT22;53112;45.602;11.904;2022-12-07T04:13:33;3.70;77.60
62575;DHT22;53112;45.602;11.904;2022-12-07T04:16:19;3.60;77.10
62575;DHT22;53112;45.602;11.904;2022-12-07T04:18:45;3.50;77.30
62575;DHT22;53112;45.602;11.904;2022-12-07T04:21:11;3.70;76.90
62575;DHT22;53112;45.602;11.904;2022-12-07T04:23:37;3.80;76.00
62575;DHT22;53112;45.602;11.904;2022-12-07T04:26:03;3.50;76.80
62575;DHT22;53112;45.602;11.904;2022-12-07T04:28:29;3.60;77.50
62575;DHT22;53112;45.602;11.904;2022-12-07T04:30:55;3.70;76.60
62575;DHT22;53112;45.602;11.904;2022-12-07T04:33:21;3.80;76.00
62575;DHT22;53112;45.602;11.904;2022-12-07T04:35:47;3.90;75.80
62575;DHT22;53112;45.602;11.904;2022-12-07T04:38:13;3.80;76.00
62575;DHT22;53112;45.602;11.904;2022-12-07T04:40:39;3.80;75.90
62575;DHT22;53112;45.602;11.904;2022-12-07T04:43:05;3.90;75.80
62575;DHT22;53112;45.602;11.904;2022-12-07T04:45:31;3.70;74.70
62575;DHT22;53112;45.602;11.904;2022-12-07T04:47:57;3.50;76.50
62575;DHT22;53112;45.602;11.904;2022-12-07T04:50:23;3.40;78.10
62575;DHT22;53112;45.602;11.904;2022-12-07T04:52:49;3.60;76.50
62575;DHT22;53112;45.602;11.904;2022-12-07T04:55:15;3.80;76.10
62575;DHT22;53112;45.602;11.904;2022-12-07T04:57:41;3.90;75.30
62575;DHT22;53112;45.602;11.904;2022-12-07T05:00:07;3.90;75.00
62575;DHT22;53112;45.602;11.904;2022-12-07T05:02:34;3.90;74.80
62575;DHT22;53112;45.602;11.904;2022-12-07T05:05:00;3.80;74.40
62575;DHT22;53112;45.602;11.904;2022-12-07T05:07:25;3.80;74.90
62575;DHT22;53112;45.602;11.904;2022-12-07T05:09:51;4.00;74.70
62575;DHT22;53112;45.602;11.904;2022-12-07T05:12:17;4.00;74.20
62575;DHT22;53112;45.602;11.904;2022-12-07T05:14:43;4.00;74.20
62575;DHT22;53112;45.602;11.904;2022-12-07T05:17:09;3.70;73.40
62575;DHT22;53112;45.602;11.904;2022-12-07T05:19:37;3.30;76.20
62575;DHT22;53112;45.602;11.904;2022-12-07T05:22:03;3.30;77.00
62575;DHT22;53112;45.602;11.904;2022-12-07T05:24:29;3.40;76.70
62575;DHT22;53112;45.602;11.904;2022-12-07T05:26:54;3.40;75.80
62575;DHT22;53112;45.602;11.904;2022-12-07T05:29:20;3.40;76.30
62575;DHT22;53112;45.602;11.904;2022-12-07T05:31:46;3.40;76.10
62575;DHT22;53112;45.602;11.904;2022-12-07T05:34:13;3.40;75.90
62575;DHT22;53112;45.602;11.904;2022-12-07T05:36:39;3.50;75.60
62575;DHT22;53112;45.602;11.904;2022-12-07T05:39:05;3.40;76.40
62575;DHT22;53112;45.602;11.904;2022-12-07T05:41:31;3.50;76.40
62575;DHT22;53112;45.602;11.904;2022-12-07T05:44:15;3.50;76.20
62575;DHT22;53112;45.602;11.904;2022-12-07T05:46:41;3.40;76.50
62575;DHT22;53112;45.602;11.904;2022-12-07T05:49:07;3.60;75.60
62575;DHT22;53112;45.602;11.904;2022-12-07T05:51:33;3.40;76.10
62575;DHT22;53112;45.602;11.904;2022-12-07T05:53:59;3.40;76.20
62575;DHT22;53112;45.602;11.904;2022-12-07T05:56:25;3.20;75.90
62575;DHT22;53112;45.602;11.904;2022-12-07T05:58:52;3.20;77.50
62575;DHT22;53112;45.602;11.904;2022-12-07T06:01:37;3.30;77.20
62575;DHT22;53112;45.602;11.904;2022-12-07T06:04:03;3.30;76.40
62575;DHT22;53112;45.602;11.904;2022-12-07T06:06:29;3.40;76.40
62575;DHT22;53112;45.602;11.904;2022-12-07T06:08:55;3.40;76.00
62575;DHT22;53112;45.602;11.904;2022-12-07T06:11:21;3.40;75.40
62575;DHT22;53112;45.602;11.904;2022-12-07T06:14:06;3.40;75.80
62575;DHT22;53112;45.602;11.904;2022-12-07T06:16:31;3.20;75.70
62575;DHT22;53112;45.602;11.904;2022-12-07T06:18:57;3.30;76.50
62575;DHT22;53112;45.602;11.904;2022-12-07T06:21:23;3.30;76.90
62575;DHT22;53112;45.602;11.904;2022-12-07T06:23:51;3.20;77.10
62575;DHT22;53112;45.602;11.904;2022-12-07T06:26:17;3.40;76.90
62575;DHT22;53112;45.602;11.904;2022-12-07T06:28:43;3.60;76.20
62575;DHT22;53112;45.602;11.904;2022-12-07T06:31:10;3.70;75.40
62575;DHT22;53112;45.602;11.904;2022-12-07T06:33:35;3.80;75.00
62575;DHT22;53112;45.602;11.904;2022-12-07T06:36:01;3.50;75.60
62575;DHT22;53112;45.602;11.904;2022-12-07T06:38:27;3.60;75.70
62575;DHT22;53112;45.602;11.904;2022-12-07T06:40:53;3.70;74.90
62575;DHT22;53112;45.602;11.904;2022-12-07T06:43:19;3.70;74.80
62575;DHT22;53112;45.602;11.904;2022-12-07T06:45:45;3.60;75.30
62575;DHT22;53112;45.602;11.904;2022-12-07T06:48:11;3.60;75.70
62575;DHT22;53112;45.602;11.904;2022-12-07T06:50:37;3.70;75.10
62575;DHT22;53112;45.602;11.904;2022-12-07T06:53:03;3.70;74.90
62575;DHT22;53112;45.602;11.904;2022-12-07T06:55:29;3.70;75.20
62575;DHT22;53112;45.602;11.904;2022-12-07T06:57:54;3.90;75.10
62575;DHT22;53112;45.602;11.904;2022-12-07T07:00:21;4.00;73.60
62575;DHT22;53112;45.602;11.904;2022-12-07T07:02:47;4.00;73.50
62575;DHT22;53112;45.602;11.904;2022-12-07T07:05:13;4.10;73.30
62575;DHT22;53112;45.602;11.904;2022-12-07T07:07:38;4.00;72.90
62575;DHT22;53112;45.602;11.904;2022-12-07T07:10:05;3.80;74.70
62575;DHT22;53112;45.602;11.904;2022-12-07T07:12:31;3.80;75.40
62575;DHT22;53112;45.602;11.904;2022-12-07T07:14:57;4.00;74.40
62575;DHT22;53112;45.602;11.904;2022-12-07T07:17:23;4.10;73.50
62575;DHT22;53112;45.602;11.904;2022-12-07T07:19:49;4.20;73.00
62575;DHT22;53112;45.602;11.904;2022-12-07T07:22:15;4.20;72.60
62575;DHT22;53112;45.602;11.904;2022-12-07T07:24:41;4.20;72.90
62575;DHT22;53112;45.602;11.904;2022-12-07T07:27:07;4.30;73.40
62575;DHT22;53112;45.602;11.904;2022-12-07T07:29:33;4.40;73.40
62575;DHT22;53112;45.602;11.904;2022-12-07T07:31:59;4.30;73.70
62575;DHT22;53112;45.602;11.904;2022-12-07T07:34:25;4.20;74.40
62575;DHT22;53112;45.602;11.904;2022-12-07T07:36:51;4.40;74.00
62575;DHT22;53112;45.602;11.904;2022-12-07T07:39:17;4.60;73.20
62575;DHT22;53112;45.602;11.904;2022-12-07T07:41:43;4.60;73.60
62575;DHT22;53112;45.602;11.904;2022-12-07T07:44:09;4.70;73.50
62575;DHT22;53112;45.602;11.904;2022-12-07T07:46:36;4.40;73.30
62575;DHT22;53112;45.602;11.904;2022-12-07T07:49:01;4.50;74.40
62575;DHT22;53112;45.602;11.904;2022-12-07T07:51:27;4.40;74.60
62575;DHT22;53112;45.602;11.904;2022-12-07T07:53:54;4.60;74.80
62575;DHT22;53112;45.602;11.904;2022-12-07T07:56:19;4.90;74.10
62575;DHT22;53112;45.602;11.904;2022-12-07T07:58:45;4.90;73.60
62575;DHT22;53112;45.602;11.904;2022-12-07T08:01:11;5.10;73.50
62575;DHT22;53112;45.602;11.904;2022-12-07T08:03:39;5.20;73.30
62575;DHT22;53112;45.602;11.904;2022-12-07T08:06:05;5.10;73.90
62575;DHT22;53112;45.602;11.904;2022-12-07T08:08:32;5.30;73.40
62575;DHT22;53112;45.602;11.904;2022-12-07T08:10:58;5.10;74.60
62575;DHT22;53112;45.602;11.904;2022-12-07T08:13:26;5.40;73.90
62575;DHT22;53112;45.602;11.904;2022-12-07T08:15:52;5.70;73.40
62575;DHT22;53112;45.602;11.904;2022-12-07T08:18:18;6.00;72.70
62575;DHT22;53112;45.602;11.904;2022-12-07T08:20:44;6.10;72.50
62575;DHT22;53112;45.602;11.904;2022-12-07T08:23:10;6.10;72.50
62575;DHT22;53112;45.602;11.904;2022-12-07T08:25:36;6.30;72.40
62575;DHT22;53112;45.602;11.904;2022-12-07T08:28:02;6.70;71.80
62575;DHT22;53112;45.602;11.904;2022-12-07T08:30:29;6.90;71.60
62575;DHT22;53112;45.602;11.904;2022-12-07T08:32:55;7.30;71.00
62575;DHT22;53112;45.602;11.904;2022-12-07T08:35:21;7.70;69.80
62575;DHT22;53112;45.602;11.904;2022-12-07T08:37:47;8.10;69.20
62575;DHT22;53112;45.602;11.904;2022-12-07T08:40:14;7.90;68.10
62575;DHT22;53112;45.602;11.904;2022-12-07T08:42:53;8.30;68.70
62575;DHT22;53112;45.602;11.904;2022-12-07T08:45:20;8.80;68.30
62575;DHT22;53112;45.602;11.904;2022-12-07T08:47:52;9.10;66.40
62575;DHT22;53112;45.602;11.904;2022-12-07T08:50:19;9.50;65.60
62575;DHT22;53112;45.602;11.904;2022-12-07T08:52:48;9.50;64.70
62575;DHT22;53112;45.602;11.904;2022-12-07T08:55:16;9.20;66.20
62575;DHT22;53112;45.602;11.904;2022-12-07T08:57:43;9.00;66.00
62575;DHT22;53112;45.602;11.904;2022-12-07T09:00:10;8.90;67.20
62575;DHT22;53112;45.602;11.904;2022-12-07T09:02:36;8.80;64.80
62575;DHT22;53112;45.602;11.904;2022-12-07T09:05:03;8.70;66.10
62575;DHT22;53112;45.602;11.904;2022-12-07T09:07:30;8.70;67.30
62575;DHT22;53112;45.602;11.904;2022-12-07T09:09:57;9.10;68.00
62575;DHT22;53112;45.602;11.904;2022-12-07T09:12:23;10.10;67.20
62575;DHT22;53112;45.602;11.904;2022-12-07T09:14:49;10.40;63.10
62575;DHT22;53112;45.602;11.904;2022-12-07T09:17:14;10.20;63.70
62575;DHT22;53112;45.602;11.904;2022-12-07T09:19:40;9.80;64.80
62575;DHT22;53112;45.602;11.904;2022-12-07T09:22:08;9.90;65.70
62575;DHT22;53112;45.602;11.904;2022-12-07T09:24:34;9.90;65.60
62575;DHT22;53112;45.602;11.904;2022-12-07T09:26:59;10.60;64.90
62575;DHT22;53112;45.602;11.904;2022-12-07T09:29:25;11.00;62.20
62575;DHT22;53112;45.602;11.904;2022-12-07T09:31:52;11.00;62.60
62575;DHT22;53112;45.602;11.904;2022-12-07T09:34:18;10.70;62.10
62575;DHT22;53112;45.602;11.904;2022-12-07T09:36:44;11.00;62.50
62575;DHT22;53112;45.602;11.904;2022-12-07T09:39:10;10.80;61.40
62575;DHT22;53112;45.602;11.904;2022-12-07T09:41:40;11.00;62.30
62575;DHT22;53112;45.602;11.904;2022-12-07T09:44:13;11.20;61.50
62575;DHT22;53112;45.602;11.904;2022-12-07T09:46:41;12.00;63.20
62575;DHT22;53112;45.602;11.904;2022-12-07T09:49:17;12.20;57.70
62575;DHT22;53112;45.602;11.904;2022-12-07T09:51:44;12.80;60.60
62575;DHT22;53112;45.602;11.904;2022-12-07T09:54:13;12.50;56.80
62575;DHT22;53112;45.602;11.904;2022-12-07T09:56:40;12.30;58.30
62575;DHT22;53112;45.602;11.904;2022-12-07T09:59:09;13.00;60.20
62575;DHT22;53112;45.602;11.904;2022-12-07T10:01:39;13.80;58.60
62575;DHT22;53112;45.602;11.904;2022-12-07T10:06:42;13.50;54.60
62575;DHT22;53112;45.602;11.904;2022-12-07T10:09:16;14.00;56.50
62575;DHT22;53112;45.602;11.904;2022-12-07T10:12:07;14.10;55.50
62575;DHT22;53112;45.602;11.904;2022-12-07T10:14:37;13.90;51.60
62575;DHT22;53112;45.602;11.904;2022-12-07T10:17:30;13.70;54.00
62575;DHT22;53112;45.602;11.904;2022-12-07T10:20:28;13.70;54.80
62575;DHT22;53112;45.602;11.904;2022-12-07T10:22:55;13.50;55.10
62575;DHT22;53112;45.602;11.904;2022-12-07T10:25:23;13.60;54.10
62575;DHT22;53112;45.602;11.904;2022-12-07T10:28:09;13.50;52.40
62575;DHT22;53112;45.602;11.904;2022-12-07T10:33:38;14.00;55.90
62575;DHT22;53112;45.602;11.904;2022-12-07T10:36:22;14.10;54.80
62575;DHT22;53112;45.602;11.904;2022-12-07T10:39:13;14.30;51.50
62575;DHT22;53112;45.602;11.904;2022-12-07T10:42:00;14.60;52.20
62575;DHT22;53112;45.602;11.904;2022-12-07T10:44:29;14.90;51.60
62575;DHT22;53112;45.602;11.904;2022-12-07T10:53:28;15.40;48.90
62575;DHT22;53112;45.602;11.904;2022-12-07T10:56:14;15.90;48.30
62575;DHT22;53112;45.602;11.904;2022-12-07T11:04:33;16.40;45.80
62575;DHT22;53112;45.602;11.904;2022-12-07T11:10:29;16.40;44.10
62575;DHT22;53112;45.602;11.904;2022-12-07T11:13:38;16.60;43.60
62575;DHT22;53112;45.602;11.904;2022-12-07T11:17:14;17.20;43.30
62575;DHT22;53112;45.602;11.904;2022-12-07T11:21:51;17.10;43.60
62575;DHT22;53112;45.602;11.904;2022-12-07T11:24:45;17.10;43.70
62575;DHT22;53112;45.602;11.904;2022-12-07T11:27:22;17.20;44.40
62575;DHT22;53112;45.602;11.904;2022-12-07T11:30:14;17.70;42.60
62575;DHT22;53112;45.602;11.904;2022-12-07T11:41:09;20.10;38.20
62575;DHT22;53112;45.602;11.904;2022-12-07T11:43:59;20.60;36.70
62575;DHT22;53112;45.602;11.904;2022-12-07T11:52:02;22.00;34.80
62575;DHT22;53112;45.602;11.904;2022-12-07T11:54:34;22.80;35.30
62575;DHT22;53112;45.602;11.904;2022-12-07T11:57:14;23.60;34.50
62575;DHT22;53112;45.602;11.904;2022-12-07T11:59:54;23.60;30.10
62575;DHT22;53112;45.602;11.904;2022-12-07T12:02:42;23.60;29.10
62575;DHT22;53112;45.602;11.904;2022-12-07T12:05:16;23.60;31.00
62575;DHT22;53112;45.602;11.904;2022-12-07T12:07:45;23.30;32.50
62575;DHT22;53112;45.602;11.904;2022-12-07T12:10:23;24.30;29.90
62575;DHT22;53112;45.602;11.904;2022-12-07T12:21:10;24.80;30.70
62575;DHT22;53112;45.602;11.904;2022-12-07T12:23:48;24.10;30.80
62575;DHT22;53112;45.602;11.904;2022-12-07T12:26:21;23.20;29.20
62575;DHT22;53112;45.602;11.904;2022-12-07T12:46:58;22.90;30.60
62575;DHT22;53112;45.602;11.904;2022-12-07T12:51:58;22.60;32.40
62575;DHT22;53112;45.602;11.904;2022-12-07T12:54:33;22.50;29.50
62575;DHT22;53112;45.602;11.904;2022-12-07T12:57:25;22.80;32.40
62575;DHT22;53112;45.602;11.904;2022-12-07T13:23:56;25.60;28.20
62575;DHT22;53112;45.602;11.904;2022-12-07T13:31:39;30.90;20.10
62575;DHT22;53112;45.602;11.904;2022-12-07T13:34:33;30.60;22.30
62575;DHT22;53112;45.602;11.904;2022-12-07T13:37:18;31.10;20.80
62575;DHT22;53112;45.602;11.904;2022-12-07T13:42:34;31.50;21.60
62575;DHT22;53112;45.602;11.904;2022-12-07T13:47:54;32.90;20.70
62575;DHT22;53112;45.602;11.904;2022-12-07T13:50:31;33.20;20.90
62575;DHT22;53112;45.602;11.904;2022-12-07T13:53:01;32.40;19.80
62575;DHT22;53112;45.602;11.904;2022-12-07T13:55:28;31.10;21.50
62575;DHT22;53112;45.602;11.904;2022-12-07T13:57:54;32.10;22.00
62575;DHT22;53112;45.602;11.904;2022-12-07T14:00:21;32.40;20.30
62575;DHT22;53112;45.602;11.904;2022-12-07T14:05:40;29.40;23.20
62575;DHT22;53112;45.602;11.904;2022-12-07T14:16:25;28.70;22.30
62575;DHT22;53112;45.602;11.904;2022-12-07T14:18:51;27.40;24.30
62575;DHT22;53112;45.602;11.904;2022-12-07T14:21:20;27.00;23.70
62575;DHT22;53112;45.602;11.904;2022-12-07T14:24:14;27.60;25.20
62575;DHT22;53112;45.602;11.904;2022-12-07T14:26:42;28.20;22.80
62575;DHT22;53112;45.602;11.904;2022-12-07T14:31:54;27.30;25.10
62575;DHT22;53112;45.602;11.904;2022-12-07T14:34:21;27.80;23.30
62575;DHT22;53112;45.602;11.904;2022-12-07T14:36:48;27.10;24.60
62575;DHT22;53112;45.602;11.904;2022-12-07T14:39:14;25.90;24.80
62575;DHT22;53112;45.602;11.904;2022-12-07T14:41:40;25.50;27.50
62575;DHT22;53112;45.602;11.904;2022-12-07T14:44:20;26.10;25.90
62575;DHT22;53112;45.602;11.904;2022-12-07T14:46:47;26.00;26.60
62575;DHT22;53112;45.602;11.904;2022-12-07T14:49:13;26.00;26.40
62575;DHT22;53112;45.602;11.904;2022-12-07T14:51:40;25.30;27.60
62575;DHT22;53112;45.602;11.904;2022-12-07T14:54:16;24.20;29.20
62575;DHT22;53112;45.602;11.904;2022-12-07T14:56:43;24.40;29.20
62575;DHT22;53112;45.602;11.904;2022-12-07T14:59:10;24.20;29.90
62575;DHT22;53112;45.602;11.904;2022-12-07T15:01:37;22.50;32.50
62575;DHT22;53112;45.602;11.904;2022-12-07T15:04:03;20.90;34.60
62575;DHT22;53112;45.602;11.904;2022-12-07T15:06:29;19.60;36.30
62575;DHT22;53112;45.602;11.904;2022-12-07T15:08:55;18.40;38.90
62575;DHT22;53112;45.602;11.904;2022-12-07T15:11:21;17.40;41.50
62575;DHT22;53112;45.602;11.904;2022-12-07T15:13:47;17.10;42.70
62575;DHT22;53112;45.602;11.904;2022-12-07T15:16:31;16.70;43.10
62575;DHT22;53112;45.602;11.904;2022-12-07T15:18:57;16.20;44.20
62575;DHT22;53112;45.602;11.904;2022-12-07T15:21:23;15.90;45.30
62575;DHT22;53112;45.602;11.904;2022-12-07T15:23:49;15.30;45.70
62575;DHT22;53112;45.602;11.904;2022-12-07T15:26:15;14.60;47.60
62575;DHT22;53112;45.602;11.904;2022-12-07T15:28:41;14.20;48.80
62575;DHT22;53112;45.602;11.904;2022-12-07T15:31:15;14.30;48.80
62575;DHT22;53112;45.602;11.904;2022-12-07T15:33:42;14.20;48.80
62575;DHT22;53112;45.602;11.904;2022-12-07T15:36:08;13.60;50.60
62575;DHT22;53112;45.602;11.904;2022-12-07T15:38:41;12.90;52.60
62575;DHT22;53112;45.602;11.904;2022-12-07T15:41:07;12.50;53.50
62575;DHT22;53112;45.602;11.904;2022-12-07T15:43:33;12.30;54.60
62575;DHT22;53112;45.602;11.904;2022-12-07T15:46:17;12.10;55.30
62575;DHT22;53112;45.602;11.904;2022-12-07T15:48:45;11.90;55.70
62575;DHT22;53112;45.602;11.904;2022-12-07T15:51:11;11.80;55.60
62575;DHT22;53112;45.602;11.904;2022-12-07T15:53:38;11.70;56.10
62575;DHT22;53112;45.602;11.904;2022-12-07T15:56:08;11.50;56.60
62575;DHT22;53112;45.602;11.904;2022-12-07T15:58:34;11.40;57.50
62575;DHT22;53112;45.602;11.904;2022-12-07T16:01:00;11.60;56.60
62575;DHT22;53112;45.602;11.904;2022-12-07T16:03:34;11.70;56.00
62575;DHT22;53112;45.602;11.904;2022-12-07T16:06:01;11.70;56.50
62575;DHT22;53112;45.602;11.904;2022-12-07T16:08:27;11.40;57.10
62575;DHT22;53112;45.602;11.904;2022-12-07T16:10:52;11.40;57.10
62575;DHT22;53112;45.602;11.904;2022-12-07T16:13:18;11.10;57.70
62575;DHT22;53112;45.602;11.904;2022-12-07T16:15:45;10.70;60.40
62575;DHT22;53112;45.602;11.904;2022-12-07T16:18:10;10.80;58.80
62575;DHT22;53112;45.602;11.904;2022-12-07T16:20:36;10.50;60.80
62575;DHT22;53112;45.602;11.904;2022-12-07T16:23:02;10.20;62.60
62575;DHT22;53112;45.602;11.904;2022-12-07T16:25:28;10.10;63.30
62575;DHT22;53112;45.602;11.904;2022-12-07T16:27:54;9.90;63.50
62575;DHT22;53112;45.602;11.904;2022-12-07T16:30:20;10.00;62.90
62575;DHT22;53112;45.602;11.904;2022-12-07T16:32:47;9.90;64.10
62575;DHT22;53112;45.602;11.904;2022-12-07T16:35:13;9.90;64.30
62575;DHT22;53112;45.602;11.904;2022-12-07T16:37:41;10.20;62.30
62575;DHT22;53112;45.602;11.904;2022-12-07T16:40:08;10.30;61.00
62575;DHT22;53112;45.602;11.904;2022-12-07T16:42:35;10.40;60.00
62575;DHT22;53112;45.602;11.904;2022-12-07T16:45:02;10.30;60.20
62575;DHT22;53112;45.602;11.904;2022-12-07T16:47:28;10.10;61.50
62575;DHT22;53112;45.602;11.904;2022-12-07T16:49:54;9.80;63.40
62575;DHT22;53112;45.602;11.904;2022-12-07T16:52:21;9.80;62.30
62575;DHT22;53112;45.602;11.904;2022-12-07T16:54:49;9.90;61.90
62575;DHT22;53112;45.602;11.904;2022-12-07T16:57:17;9.90;61.10
62575;DHT22;53112;45.602;11.904;2022-12-07T16:59:43;9.80;61.80
62575;DHT22;53112;45.602;11.904;2022-12-07T17:02:11;9.30;66.00
62575;DHT22;53112;45.602;11.904;2022-12-07T17:04:37;9.00;66.90
62575;DHT22;53112;45.602;11.904;2022-12-07T17:07:09;9.00;66.60
62575;DHT22;53112;45.602;11.904;2022-12-07T17:09:36;9.00;67.40
62575;DHT22;53112;45.602;11.904;2022-12-07T17:12:02;8.80;67.70
62575;DHT22;53112;45.602;11.904;2022-12-07T17:14:28;8.60;69.10
62575;DHT22;53112;45.602;11.904;2022-12-07T17:17:12;8.70;68.70
62575;DHT22;53112;45.602;11.904;2022-12-07T17:19:38;8.50;70.30
62575;DHT22;53112;45.602;11.904;2022-12-07T17:22:04;8.50;69.50
62575;DHT22;53112;45.602;11.904;2022-12-07T17:24:31;8.60;68.90
62575;DHT22;53112;45.602;11.904;2022-12-07T17:26:57;8.70;69.50
62575;DHT22;53112;45.602;11.904;2022-12-07T17:29:23;8.80;69.30
62575;DHT22;53112;45.602;11.904;2022-12-07T17:31:49;8.70;70.00
62575;DHT22;53112;45.602;11.904;2022-12-07T17:34:15;8.70;68.40
62575;DHT22;53112;45.602;11.904;2022-12-07T17:36:41;8.80;67.70
62575;DHT22;53112;45.602;11.904;2022-12-07T17:39:09;8.70;67.60
62575;DHT22;53112;45.602;11.904;2022-12-07T17:41:36;8.60;69.20
62575;DHT22;53112;45.602;11.904;2022-12-07T17:44:20;8.70;69.80
62575;DHT22;53112;45.602;11.904;2022-12-07T17:46:48;8.60;69.50
62575;DHT22;53112;45.602;11.904;2022-12-07T17:49:15;8.40;70.10
62575;DHT22;53112;45.602;11.904;2022-12-07T17:51:42;8.30;70.70
62575;DHT22;53112;45.602;11.904;2022-12-07T17:54:26;8.30;70.70
62575;DHT22;53112;45.602;11.904;2022-12-07T17:56:53;8.30;71.50
62575;DHT22;53112;45.602;11.904;2022-12-07T17:59:19;8.40;68.90
62575;DHT22;53112;45.602;11.904;2022-12-07T18:01:45;8.30;69.00
62575;DHT22;53112;45.602;11.904;2022-12-07T18:04:11;8.20;69.90
62575;DHT22;53112;45.602;11.904;2022-12-07T18:06:38;7.90;70.40
62575;DHT22;53112;45.602;11.904;2022-12-07T18:09:04;7.70;71.50
62575;DHT22;53112;45.602;11.904;2022-12-07T18:11:30;7.70;70.70
62575;DHT22;53112;45.602;11.904;2022-12-07T18:13:57;7.90;69.40